Time;durP1;ratioP1;P1;durP2;ratioP2;P2;SDS_P1;SDS_P2;PMS_P1;PMS_P2;Temp;Humidity;BMP_temperature;BMP_pressure;BME280_temperature;BME280_humidity;BME280_pressure;Samples;Min_cycle;Max_cycle;Signal;HPM_P1;HPM_P2
2023/01/13 00:01:10;;;;;;;8.90;3.70;;;;;;;6.89;100.00;98758.86;109574;1252;74360;-65
2023/01/13 00:03:59;;;;;;;9.30;3.60;;;;;;;6.88;100.00;98761.02;109593;1254;67950;-65
2023/01/13 00:06:48;;;;;;;8.80;4.00;;;;;;;6.89;100.00;98755.69;109360;1254;73708;-64
2023/01/13 00:09:36;;;;;;;10.00;3.80;;;;;;;6.87;100.00;98757.38;109560;1251;59717;-64
2023/01/13 00:12:24;;;;;;;8.10;3.70;;;;;;;6.86;100.00;98755.19;109564;1255;60038;-65
2023/01/13 00:15:12;;;;;;;7.40;3.10;;;;;;;6.87;100.00;98752.98;109564;1253;72772;-66
2023/01/13 00:18:00;;;;;;;9.10;3.10;;;;;;;6.89;100.00;98754.79;109503;1253;67052;-64
2023/01/13 00:21:02;;;;;;;8.70;3.00;;;;;;;6.90;100.00;98753.98;109547;1252;72826;-65
2023/01/13 00:23:52;;;;;;;10.50;3.60;;;;;;;6.91;100.00;98748.64;109588;1254;60412;-65
2023/01/13 00:26:41;;;;;;;9.30;3.20;;;;;;;6.92;100.00;98745.14;109582;1252;59987;-66
2023/01/13 00:29:29;;;;;;;8.70;3.10;;;;;;;6.96;100.00;98733.55;109542;1252;71874;-65
2023/01/13 00:32:17;;;;;;;7.10;2.70;;;;;;;6.98;100.00;98730.89;109561;1253;68033;-65
2023/01/13 00:35:05;;;;;;;7.30;3.30;;;;;;;7.00;100.00;98723.69;109570;1254;71301;-67
2023/01/13 00:37:53;;;;;;;7.20;2.90;;;;;;;7.01;100.00;98723.41;109392;1254;58315;-64
2023/01/13 00:40:41;;;;;;;8.40;3.50;;;;;;;7.03;100.00;98717.86;109599;1252;60474;-66
2023/01/13 00:43:31;;;;;;;7.50;3.30;;;;;;;7.05;100.00;98716.21;109566;1251;74287;-65
2023/01/13 00:46:21;;;;;;;6.70;3.20;;;;;;;7.07;100.00;98720.14;109491;1254;68763;-65
2023/01/13 00:49:09;;;;;;;8.60;3.80;;;;;;;7.07;100.00;98712.69;109448;1252;73898;-67
2023/01/13 00:51:58;;;;;;;7.50;3.00;;;;;;;7.08;100.00;98709.79;109560;1251;59463;-65
2023/01/13 00:54:46;;;;;;;8.50;3.10;;;;;;;7.09;100.00;98707.58;109593;1253;60777;-69
2023/01/13 00:57:34;;;;;;;8.20;3.60;;;;;;;7.08;100.00;98702.38;109570;1253;73703;-64
2023/01/13 01:00:23;;;;;;;7.80;3.60;;;;;;;7.08;100.00;98696.55;109611;1253;67635;-65
2023/01/13 01:03:11;;;;;;;7.80;3.60;;;;;;;7.06;100.00;98691.81;109222;1254;72588;-66
2023/01/13 01:06:12;;;;;;;8.80;3.90;;;;;;;7.05;100.00;98684.85;109570;1254;60570;-64
2023/01/13 01:09:01;;;;;;;10.00;3.00;;;;;;;7.02;100.00;98670.94;109599;1253;59508;-65
2023/01/13 01:11:49;;;;;;;7.30;3.30;;;;;;;7.04;100.00;98670.11;109366;1254;73211;-63
2023/01/13 01:14:37;;;;;;;7.30;3.60;;;;;;;7.05;100.00;98662.98;109559;1253;66973;-65
2023/01/13 01:17:27;;;;;;;7.80;3.30;;;;;;;7.02;100.00;98657.63;109575;1253;72390;-65
2023/01/13 01:20:15;;;;;;;8.00;3.90;;;;;;;7.02;100.00;98656.55;109434;1253;58979;-65
2023/01/13 01:23:03;;;;;;;7.60;3.70;;;;;;;7.01;100.00;98654.48;109480;1254;60418;-66
2023/01/13 01:25:50;;;;;;;11.20;3.30;;;;;;;6.99;100.00;98649.52;109444;1253;71952;-65
2023/01/13 01:28:39;;;;;;;10.00;3.30;;;;;;;6.98;100.00;98646.08;109550;1253;66926;-67
2023/01/13 01:31:31;;;;;;;7.20;3.30;;;;;;;7.00;100.00;98643.14;109489;1252;72887;-66
2023/01/13 01:34:19;;;;;;;6.90;3.00;;;;;;;7.01;100.00;98642.48;109463;1252;58866;-65
2023/01/13 01:37:07;;;;;;;9.10;3.30;;;;;;;7.02;100.00;98634.35;109582;1252;59389;-64
2023/01/13 01:39:55;;;;;;;7.30;3.00;;;;;;;7.01;100.00;98628.54;109581;1251;73161;-66
2023/01/13 01:45:51;;;;;;;7.60;3.40;;;;;;;7.04;100.00;98626.52;109550;1253;72490;-64
2023/01/13 01:48:41;;;;;;;7.30;3.60;;;;;;;7.06;100.00;98622.81;109513;1252;60548;-64
2023/01/13 01:51:36;;;;;;;8.70;3.50;;;;;;;7.09;100.00;98615.73;109612;1253;59239;-64
2023/01/13 01:54:33;;;;;;;8.90;3.40;;;;;;;7.10;100.00;98613.17;109396;1256;73085;-63
2023/01/13 01:57:39;;;;;;;11.30;3.80;;;;;;;7.11;100.00;98616.77;109582;1254;67808;-65
2023/01/13 02:00:28;;;;;;;10.50;4.20;;;;;;;7.12;100.00;98616.71;109581;1252;72666;-63
2023/01/13 02:03:17;;;;;;;9.90;4.30;;;;;;;7.13;100.00;98604.63;109310;1252;59553;-64
2023/01/13 02:06:07;;;;;;;11.20;4.10;;;;;;;7.13;100.00;98603.02;109509;1253;59031;-63
2023/01/13 02:08:56;;;;;;;10.10;3.90;;;;;;;7.14;100.00;98603.27;109621;1253;71443;-62
2023/01/13 02:14:50;;;;;;;8.80;4.00;;;;;;;7.16;100.00;98602.08;109533;1251;72638;-65
2023/01/13 02:17:46;;;;;;;8.40;3.10;;;;;;;7.15;100.00;98600.59;109543;1252;59528;-63
2023/01/13 02:20:49;;;;;;;9.90;3.70;;;;;;;7.12;100.00;98597.25;109611;1252;60048;-63
2023/01/13 02:28:22;;;;;;;7.80;3.10;;;;;;;7.04;100.00;98590.20;109569;1252;66359;-65
2023/01/13 02:35:02;;;;;;;7.20;2.90;;;;;;;6.96;100.00;98582.73;108926;1259;58629;-63
2023/01/13 02:37:52;;;;;;;7.00;2.70;;;;;;;6.95;100.00;98577.77;108855;1259;57928;-64
2023/01/13 02:40:46;;;;;;;6.80;2.70;;;;;;;6.93;100.00;98568.21;108950;1258;72833;-63
2023/01/13 02:46:48;;;;;;;7.40;2.80;;;;;;;6.88;100.00;98573.25;108903;1259;73441;-64
2023/01/13 02:49:42;;;;;;;7.10;2.50;;;;;;;6.86;100.00;98566.34;109007;1258;59493;-63
2023/01/13 02:52:43;;;;;;;6.70;2.40;;;;;;;6.87;100.00;98567.18;108934;1259;60515;-64
2023/01/13 02:55:47;;;;;;;7.70;2.70;;;;;;;6.86;100.00;98564.42;108794;1258;174974;-64
2023/01/13 02:58:38;;;;;;;7.50;2.40;;;;;;;6.85;100.00;98562.58;108864;1259;66956;-64
2023/01/13 03:01:26;;;;;;;7.80;2.60;;;;;;;6.86;100.00;98553.37;109012;1259;74068;-64
2023/01/13 03:04:50;;;;;;;6.50;2.90;;;;;;;6.86;100.00;98555.09;108848;1258;59342;-63
2023/01/13 03:07:46;;;;;;;6.60;2.30;;;;;;;6.88;100.00;98553.88;109354;1252;60150;-64
2023/01/13 03:11:07;;;;;;;6.50;2.20;;;;;;;6.87;100.00;98547.11;109496;1253;72647;-64
2023/01/13 03:14:35;;;;;;;7.30;2.90;;;;;;;6.85;100.00;98546.52;109556;1252;66648;-64
2023/01/13 03:18:00;;;;;;;7.90;2.80;;;;;;;6.86;100.00;98543.83;109570;1252;71486;-64
2023/01/13 03:21:19;;;;;;;6.80;2.50;;;;;;;6.86;100.00;98544.71;109537;1252;59437;-66
2023/01/13 03:24:32;;;;;;;6.50;2.40;;;;;;;6.88;100.00;98543.85;109603;1252;60022;-65
2023/01/13 03:27:33;;;;;;;7.40;2.40;;;;;;;6.87;100.00;98539.33;109582;1253;71771;-64
2023/01/13 03:31:04;;;;;;;7.60;2.10;;;;;;;6.89;100.00;98538.13;109564;1252;68188;-64
2023/01/13 03:34:02;;;;;;;7.70;2.40;;;;;;;6.91;100.00;98537.00;109449;1252;73504;-64
2023/01/13 03:36:54;;;;;;;6.50;2.30;;;;;;;6.92;100.00;98540.09;109601;1251;57946;-64
2023/01/13 03:39:53;;;;;;;6.70;2.20;;;;;;;6.93;100.00;98538.59;109510;1251;60342;-64
2023/01/13 03:44:20;;;;;;;6.10;2.00;;;;;;;6.92;100.00;98536.38;109597;1253;73079;-64
2023/01/13 03:45:59;;;;;;;6.60;2.10;;;;;;;6.93;100.00;98530.17;109545;1252;67610;-64
2023/01/13 03:48:51;;;;;;;6.30;2.00;;;;;;;6.93;100.00;98532.93;109472;1252;72629;-65
2023/01/13 03:51:42;;;;;;;5.90;2.20;;;;;;;6.96;100.00;98532.84;109400;1252;58316;-64
2023/01/13 03:54:33;;;;;;;5.20;1.60;;;;;;;6.99;100.00;98527.19;109577;1251;60086;-63
2023/01/13 03:57:28;;;;;;;5.30;1.60;;;;;;;6.97;100.00;98524.48;109387;1252;74487;-64
2023/01/13 04:00:18;;;;;;;6.40;1.80;;;;;;;6.98;100.00;98526.33;109503;1252;65583;-65
2023/01/13 04:03:11;;;;;;;6.00;2.00;;;;;;;7.00;100.00;98525.34;109416;1252;72652;-65
2023/01/13 04:06:09;;;;;;;5.70;2.30;;;;;;;6.99;100.00;98530.31;109290;1251;59771;-64
2023/01/13 04:09:43;;;;;;;5.60;2.20;;;;;;;7.01;100.00;98530.68;109567;1252;61379;-65
2023/01/13 04:13:00;;;;;;;5.10;1.70;;;;;;;7.02;100.00;98519.16;109570;1252;73080;-63
2023/01/13 04:15:49;;;;;;;5.50;1.50;;;;;;;7.01;100.00;98518.38;109458;1252;67846;-63
2023/01/13 04:18:38;;;;;;;5.40;1.80;;;;;;;7.00;100.00;98511.91;109312;1252;73429;-65
2023/01/13 04:21:28;;;;;;;5.40;1.60;;;;;;;7.02;100.00;98512.65;109564;1252;58019;-63
2023/01/13 04:24:18;;;;;;;5.70;1.60;;;;;;;7.03;100.00;98506.21;109610;1252;58678;-64
2023/01/13 04:27:06;;;;;;;5.40;1.80;;;;;;;7.05;100.00;98503.88;109593;1252;73315;-64
2023/01/13 04:29:53;;;;;;;5.60;1.50;;;;;;;7.06;100.00;98507.02;109598;1252;67750;-64
2023/01/13 04:32:41;;;;;;;6.00;1.70;;;;;;;7.04;100.00;98505.38;109596;1252;74137;-63
2023/01/13 04:35:29;;;;;;;6.30;2.00;;;;;;;7.02;100.00;98508.21;109533;1252;58355;-65
2023/01/13 04:38:20;;;;;;;5.80;2.10;;;;;;;7.01;100.00;98505.29;109568;1252;58782;-64
2023/01/13 04:41:07;;;;;;;5.30;1.60;;;;;;;7.01;100.00;98509.91;109552;1252;71462;-64
2023/01/13 04:43:55;;;;;;;6.20;1.90;;;;;;;7.02;100.00;98507.02;109597;1251;67982;-64
2023/01/13 04:46:43;;;;;;;5.40;1.60;;;;;;;7.05;100.00;98505.49;109555;1251;73865;-64
2023/01/13 04:49:32;;;;;;;6.80;1.80;;;;;;;7.08;100.00;98508.98;109576;1251;59748;-65
2023/01/13 04:52:20;;;;;;;6.20;1.40;;;;;;;7.09;100.00;98508.66;109617;1252;58711;-65
2023/01/13 04:55:09;;;;;;;8.10;1.80;;;;;;;7.09;100.00;98508.98;109561;1252;73122;-64
2023/01/13 04:58:09;;;;;;;6.00;1.60;;;;;;;7.08;100.00;98510.54;109469;1252;67690;-63
2023/01/13 05:00:56;;;;;;;5.20;1.50;;;;;;;7.07;100.00;98510.92;109487;1251;72427;-63
2023/01/13 05:03:44;;;;;;;5.70;1.50;;;;;;;7.07;100.00;98501.98;109539;1252;59529;-63
2023/01/13 05:06:33;;;;;;;5.70;1.60;;;;;;;7.05;100.00;98505.46;109589;1252;60032;-68
2023/01/13 05:09:20;;;;;;;5.40;1.50;;;;;;;7.04;100.00;98506.13;109587;1251;74068;-63
2023/01/13 05:18:22;;;;;;;5.50;1.80;;;;;;;7.02;100.00;98510.33;109444;1251;60692;-64
2023/01/13 05:25:20;;;;;;;5.30;1.50;;;;;;;7.03;100.00;98512.92;109505;1253;60363;-65
2023/01/13 05:27:24;;;;;;;5.40;1.60;;;;;;;7.03;100.00;98517.16;109586;1251;67853;-67
2023/01/13 05:30:12;;;;;;;5.40;1.70;;;;;;;7.05;100.00;98516.23;109490;1252;72610;-67
2023/01/13 05:33:00;;;;;;;5.70;2.00;;;;;;;7.05;100.00;98515.85;109523;1252;59331;-63
2023/01/13 05:35:48;;;;;;;5.00;1.70;;;;;;;7.06;100.00;98516.00;109553;1252;61248;-65
2023/01/13 05:38:36;;;;;;;4.80;1.60;;;;;;;7.07;100.00;98517.45;109546;1252;71800;-66
2023/01/13 05:44:30;;;;;;;5.70;1.80;;;;;;;7.07;100.00;98523.63;109561;1252;72835;-69
2023/01/13 05:47:18;;;;;;;5.90;2.20;;;;;;;7.10;100.00;98528.13;109478;1252;58027;-67
2023/01/13 05:50:06;;;;;;;7.30;2.40;;;;;;;7.11;100.00;98533.35;109487;1252;61507;-67
2023/01/13 05:52:54;;;;;;;6.00;2.10;;;;;;;7.09;100.00;98532.45;109496;1251;71882;-65
2023/01/13 05:55:44;;;;;;;6.30;2.00;;;;;;;7.12;100.00;98541.21;109513;1252;68893;-65
2023/01/13 05:58:33;;;;;;;7.10;2.20;;;;;;;7.14;100.00;98541.76;109368;1252;73851;-67
2023/01/13 06:01:20;;;;;;;7.30;2.20;;;;;;;7.16;100.00;98544.56;109445;1251;58408;-64
2023/01/13 06:04:08;;;;;;;7.50;2.30;;;;;;;7.16;100.00;98542.05;109555;1252;60441;-65
2023/01/13 06:06:56;;;;;;;5.90;1.50;;;;;;;7.16;100.00;98543.51;109512;1252;72906;-64
2023/01/13 06:09:45;;;;;;;5.50;1.60;;;;;;;7.18;100.00;98544.91;109578;1251;68201;-65
2023/01/13 06:12:33;;;;;;;5.10;1.60;;;;;;;7.18;100.00;98547.41;109510;1252;72935;-64
2023/01/13 06:15:21;;;;;;;5.30;1.60;;;;;;;7.22;100.00;98555.32;109530;1251;58159;-66
2023/01/13 06:18:09;;;;;;;4.80;1.30;;;;;;;7.27;100.00;98556.10;109643;1252;60019;-66
2023/01/13 06:20:57;;;;;;;4.80;1.30;;;;;;;7.30;100.00;98554.61;109532;1251;72739;-65
2023/01/13 06:23:45;;;;;;;5.60;1.50;;;;;;;7.33;100.00;98558.94;109558;1252;66691;-69
2023/01/13 06:26:39;;;;;;;6.00;1.70;;;;;;;7.34;100.00;98557.27;109527;1251;72844;-64
2023/01/13 06:29:27;;;;;;;6.70;2.00;;;;;;;7.37;100.00;98557.69;109544;1251;60485;-67
2023/01/13 06:32:26;;;;;;;5.70;1.60;;;;;;;7.39;100.00;98562.31;109549;1252;61073;-70
2023/01/13 06:35:19;;;;;;;4.90;1.60;;;;;;;7.40;100.00;98564.73;109507;1252;72596;-67
2023/01/13 06:38:11;;;;;;;5.60;1.70;;;;;;;7.42;100.00;98568.73;109580;1251;67590;-66
2023/01/13 06:40:59;;;;;;;5.70;1.80;;;;;;;7.42;100.00;98574.02;109506;1251;72431;-66
2023/01/13 06:43:47;;;;;;;5.60;1.60;;;;;;;7.44;100.00;98577.27;109484;1252;59704;-65
2023/01/13 06:46:35;;;;;;;5.40;1.50;;;;;;;7.46;100.00;98576.30;109471;1252;61294;-67
2023/01/13 06:49:22;;;;;;;5.70;1.40;;;;;;;7.48;100.00;98578.05;109460;1253;72771;-67
2023/01/13 06:52:10;;;;;;;5.00;1.30;;;;;;;7.51;100.00;98576.80;109538;1252;66697;-65
2023/01/13 06:54:58;;;;;;;4.90;1.40;;;;;;;7.54;100.00;98579.40;109471;1252;71487;-69
2023/01/13 06:57:55;;;;;;;5.70;1.70;;;;;;;7.55;100.00;98579.98;109443;1252;58413;-65
2023/01/13 07:00:43;;;;;;;5.30;1.70;;;;;;;7.56;100.00;98581.16;109548;1252;58197;-66
2023/01/13 07:03:31;;;;;;;5.70;1.80;;;;;;;7.55;100.00;98578.38;109560;1252;71191;-66
2023/01/13 07:06:19;;;;;;;6.60;2.20;;;;;;;7.56;100.00;98580.21;109440;1251;69020;-67
2023/01/13 07:09:07;;;;;;;6.90;2.10;;;;;;;7.56;100.00;98586.58;109519;1252;72394;-66
2023/01/13 07:11:55;;;;;;;6.70;1.90;;;;;;;7.54;100.00;98586.95;109517;1251;58349;-69
2023/01/13 07:17:51;;;;;;;8.10;2.70;;;;;;;7.52;100.00;98576.52;109523;1252;73078;-70
2023/01/13 07:20:38;;;;;;;6.90;2.40;;;;;;;7.56;100.00;98577.07;109583;1252;68467;-68
2023/01/13 07:23:28;;;;;;;7.90;2.50;;;;;;;7.60;100.00;98578.14;108789;1252;1014839;-72
2023/01/13 07:26:16;;;;;;;9.60;2.70;;;;;;;7.61;100.00;98586.66;109531;1252;59355;-73
2023/01/13 07:29:04;;;;;;;7.70;2.30;;;;;;;7.60;100.00;98588.54;109570;1252;59059;-68
2023/01/13 07:31:52;;;;;;;6.50;1.90;;;;;;;7.62;100.00;98592.44;109608;1252;73086;-70
2023/01/13 07:34:40;;;;;;;7.00;2.00;;;;;;;7.61;100.00;98595.67;109540;1252;68222;-70
2023/01/13 07:37:28;;;;;;;7.20;2.20;;;;;;;7.61;100.00;98598.83;109452;1252;72952;-69
2023/01/13 07:40:16;;;;;;;6.20;2.10;;;;;;;7.59;100.00;98599.70;109475;1252;58185;-69
2023/01/13 07:46:11;;;;;;;6.60;2.30;;;;;;;7.54;100.00;98600.35;109466;1252;73106;-69
2023/01/13 07:49:00;;;;;;;5.80;1.90;;;;;;;7.50;100.00;98597.89;109424;1253;67811;-66
2023/01/13 07:51:48;;;;;;;6.00;1.90;;;;;;;7.52;100.00;98599.33;108655;1253;1002144;-66
2023/01/13 07:54:36;;;;;;;6.40;2.60;;;;;;;7.52;100.00;98600.22;109445;1252;59312;-68
2023/01/13 07:57:28;;;;;;;6.40;2.40;;;;;;;7.52;100.00;98603.89;109457;1252;58223;-70
2023/01/13 08:00:18;;;;;;;6.10;2.00;;;;;;;7.51;100.00;98607.10;109483;1252;73149;-71
2023/01/13 08:03:06;;;;;;;6.20;2.30;;;;;;;7.51;100.00;98608.54;109511;1253;68246;-71
2023/01/13 08:05:54;;;;;;;6.30;2.20;;;;;;;7.52;100.00;98614.98;109507;1252;72516;-68
2023/01/13 08:08:42;;;;;;;6.80;2.40;;;;;;;7.49;100.00;98613.42;109453;1252;58378;-68
2023/01/13 08:11:30;;;;;;;7.50;2.50;;;;;;;7.52;100.00;98615.91;109513;1252;60389;-72
2023/01/13 08:14:18;;;;;;;6.50;2.50;;;;;;;7.53;100.00;98615.27;109522;1252;72898;-71
2023/01/13 08:17:09;;;;;;;6.90;2.40;;;;;;;7.53;100.00;98619.13;109505;1253;68029;-73
2023/01/13 08:19:57;;;;;;;7.80;2.90;;;;;;;7.53;100.00;98624.23;109515;1252;72942;-70
2023/01/13 08:22:44;;;;;;;8.30;2.70;;;;;;;7.56;100.00;98623.86;109449;1253;60797;-68
2023/01/13 08:25:32;;;;;;;7.90;2.80;;;;;;;7.55;100.00;98623.23;109467;1252;59287;-69
2023/01/13 08:28:22;;;;;;;8.40;2.80;;;;;;;7.58;100.00;98622.02;109445;1252;71851;-69
2023/01/13 08:31:18;;;;;;;7.50;2.50;;;;;;;7.63;100.00;98616.46;109515;1252;68931;-67
2023/01/13 08:34:07;;;;;;;6.80;2.60;;;;;;;7.68;100.00;98614.30;109485;1252;73727;-67
2023/01/13 08:36:54;;;;;;;5.70;2.00;;;;;;;7.69;100.00;98619.55;109513;1252;58428;-71
2023/01/13 08:39:42;;;;;;;6.60;2.40;;;;;;;7.70;100.00;98614.34;109423;1253;61586;-69
2023/01/13 08:42:31;;;;;;;7.60;2.30;;;;;;;7.72;100.00;98617.63;109488;1253;71558;-69
2023/01/13 08:45:20;;;;;;;6.80;2.40;;;;;;;7.74;100.00;98625.77;109559;1252;66670;-66
2023/01/13 08:48:10;;;;;;;6.40;2.30;;;;;;;7.75;100.00;98634.52;109481;1251;72779;-68
2023/01/13 08:51:08;;;;;;;7.40;2.70;;;;;;;7.75;100.00;98641.01;109497;1252;58727;-67
2023/01/13 08:53:57;;;;;;;8.10;3.20;;;;;;;7.76;100.00;98642.86;109567;1252;61168;-73
2023/01/13 08:56:46;;;;;;;8.70;2.60;;;;;;;7.79;100.00;98650.06;109578;1252;72922;-69
2023/01/13 08:59:34;;;;;;;7.20;2.60;;;;;;;7.78;100.00;98649.59;109599;1252;67640;-71
2023/01/13 09:02:23;;;;;;;8.40;2.50;;;;;;;7.80;100.00;98654.94;109488;1251;72346;-71
2023/01/13 09:05:11;;;;;;;6.70;2.80;;;;;;;7.81;100.00;98657.92;109600;1251;59635;-76
2023/01/13 09:07:59;;;;;;;8.90;2.80;;;;;;;7.84;100.00;98657.88;109585;1252;59186;-76
2023/01/13 09:10:47;;;;;;;7.20;2.30;;;;;;;7.87;100.00;98658.20;109536;1252;72975;-70
2023/01/13 09:13:35;;;;;;;6.60;2.10;;;;;;;7.88;100.00;98652.59;109597;1253;66335;-73
2023/01/13 09:16:23;;;;;;;6.10;2.20;;;;;;;7.90;100.00;98655.05;109551;1252;73653;-72
2023/01/13 09:19:11;;;;;;;6.20;2.40;;;;;;;7.90;100.00;98646.62;109544;1252;60801;-67
2023/01/13 09:21:59;;;;;;;7.30;2.50;;;;;;;7.87;100.00;98651.24;109595;1252;60115;-71
2023/01/13 09:24:47;;;;;;;6.50;2.50;;;;;;;7.85;100.00;98654.98;109572;1251;72818;-72
2023/01/13 09:27:35;;;;;;;7.20;2.40;;;;;;;7.83;100.00;98660.28;108826;1252;1002189;-70
2023/01/13 09:30:23;;;;;;;6.90;2.50;;;;;;;7.82;100.00;98662.80;109557;1251;73999;-72
2023/01/13 09:36:18;;;;;;;7.00;2.50;;;;;;;7.83;100.00;98667.88;109482;1253;60456;-69
2023/01/13 09:39:06;;;;;;;6.00;2.50;;;;;;;7.83;100.00;98668.89;109469;1252;72937;-67
2023/01/13 09:45:41;;;;;;;6.90;2.70;;;;;;;7.79;100.00;98671.45;109370;1253;72758;-69
2023/01/13 09:48:50;;;;;;;6.70;2.20;;;;;;;7.78;100.00;98678.33;109421;1257;58007;-73
2023/01/13 09:51:47;;;;;;;8.30;2.20;;;;;;;7.78;100.00;98673.45;109502;1252;61266;-72
2023/01/13 09:55:07;;;;;;;9.80;2.10;;;;;;;7.80;100.00;98676.66;109288;1253;71856;-72
2023/01/13 09:57:55;;;;;;;7.50;1.80;;;;;;;7.79;100.00;98675.27;109539;1252;69118;-66
2023/01/13 10:00:59;;;;;;;8.90;1.70;;;;;;;7.77;100.00;98674.03;109479;1253;72774;-65
2023/01/13 10:03:48;;;;;;;7.60;1.90;;;;;;;7.73;100.00;98671.22;109458;1252;59814;-66
2023/01/13 10:06:42;;;;;;;5.80;1.70;;;;;;;7.74;99.97;98669.20;109444;1252;59214;-69
2023/01/13 10:09:58;;;;;;;6.80;1.60;;;;;;;7.74;99.53;98670.08;109450;1252;71676;-71
2023/01/13 10:16:11;;;;;;;8.50;1.60;;;;;;;7.76;98.29;98677.00;109427;1252;70776;-72
2023/01/13 10:19:16;;;;;;;7.80;2.10;;;;;;;7.77;98.06;98674.42;109516;1253;59638;-72
2023/01/13 10:22:17;;;;;;;7.30;1.90;;;;;;;7.87;99.38;98671.60;109495;1253;60401;-72
2023/01/13 10:25:11;;;;;;;7.50;1.80;;;;;;;7.98;99.71;98678.87;109422;1252;74526;-74
2023/01/13 10:28:12;;;;;;;6.40;1.70;;;;;;;8.03;99.92;98672.83;109461;1252;69036;-71
2023/01/13 10:31:08;;;;;;;7.20;2.00;;;;;;;8.09;100.00;98667.02;109372;1253;72788;-72
2023/01/13 10:34:05;;;;;;;5.60;1.90;;;;;;;8.09;100.00;98668.27;109433;1252;57735;-71
2023/01/13 10:37:05;;;;;;;6.00;2.10;;;;;;;8.13;100.00;98669.24;109526;1253;58842;-73
2023/01/13 10:40:00;;;;;;;6.40;1.60;;;;;;;8.18;100.00;98669.38;109479;1253;73192;-74
2023/01/13 10:43:05;;;;;;;7.20;1.90;;;;;;;8.24;99.89;98664.98;109577;1252;67284;-75
2023/01/13 10:46:02;;;;;;;5.90;1.80;;;;;;;8.30;99.80;98652.91;109564;1252;71369;-75
2023/01/13 10:48:57;;;;;;;6.20;2.10;;;;;;;9.02;97.84;98639.23;109544;1252;57985;-73
2023/01/13 10:51:45;;;;;;;6.00;1.80;;;;;;;9.15;96.20;98641.42;109525;1255;61559;-72
2023/01/13 10:54:34;;;;;;;6.60;2.00;;;;;;;9.12;94.89;98641.55;109582;1253;72734;-77
2023/01/13 10:57:27;;;;;;;5.50;1.50;;;;;;;9.14;94.78;98646.98;109517;1251;68747;-68
2023/01/13 11:00:33;;;;;;;7.00;2.00;;;;;;;9.34;95.27;98641.77;109522;1251;73412;-70
2023/01/13 11:03:26;;;;;;;7.20;2.10;;;;;;;9.78;91.18;98632.29;109506;1251;59675;-73
2023/01/13 11:06:29;;;;;;;7.30;2.30;;;;;;;9.71;91.12;98630.79;109427;1251;61712;-70
2023/01/13 11:09:21;;;;;;;8.70;2.70;;;;;;;10.06;89.03;98617.98;109453;1252;72183;-75
2023/01/13 11:12:39;;;;;;;8.90;2.60;;;;;;;11.96;84.70;98611.75;109453;1253;69034;-68
2023/01/13 11:15:43;;;;;;;7.30;2.20;;;;;;;13.90;75.98;98618.69;109414;1253;73517;-72
2023/01/13 11:19:01;;;;;;;8.30;2.40;;;;;;;14.18;69.56;98622.19;109487;1253;57392;-67
2023/01/13 11:22:08;;;;;;;7.10;2.00;;;;;;;13.92;69.67;98618.98;109497;1251;58988;-67
2023/01/13 11:25:01;;;;;;;7.50;2.20;;;;;;;13.48;68.88;98629.27;109342;1252;71785;-65
2023/01/13 11:28:01;;;;;;;7.90;2.60;;;;;;;13.66;68.82;98622.89;109501;1257;68893;-71
2023/01/13 11:31:04;;;;;;;6.80;2.20;;;;;;;14.69;64.14;98614.98;109440;1252;72523;-73
2023/01/13 11:34:10;;;;;;;6.40;2.10;;;;;;;14.98;62.44;98623.48;109429;1253;57697;-72
2023/01/13 11:37:00;;;;;;;6.50;1.90;;;;;;;15.38;60.52;98623.89;109485;1253;60125;-69
2023/01/13 11:40:11;;;;;;;7.10;2.50;;;;;;;14.42;63.16;98622.02;109614;1253;71795;-73
2023/01/13 11:43:38;;;;;;;6.10;1.80;;;;;;;13.50;65.86;98631.91;109284;1252;66963;-68
2023/01/13 11:46:27;;;;;;;6.40;2.10;;;;;;;13.56;66.47;98629.45;109443;1252;73837;-67
2023/01/13 11:49:29;;;;;;;6.60;2.20;;;;;;;13.40;66.46;98633.45;109523;1254;57958;-72
2023/01/13 11:52:55;;;;;;;6.80;1.90;;;;;;;13.16;67.81;98637.46;109324;1252;59113;-72
2023/01/13 11:56:04;;;;;;;5.80;1.60;;;;;;;13.44;66.64;98636.88;109556;1254;72804;-74
2023/01/13 11:59:09;;;;;;;7.10;1.80;;;;;;;13.78;65.30;98637.73;109590;1252;67993;-76
2023/01/13 12:02:48;;;;;;;5.80;1.60;;;;;;;13.52;66.16;98640.79;109552;1253;72814;-71
2023/01/13 12:05:43;;;;;;;6.20;1.50;;;;;;;12.88;68.37;98648.20;109534;1252;57302;-72
2023/01/13 12:08:49;;;;;;;5.40;1.30;;;;;;;12.43;69.27;98647.03;109534;1254;60017;-72
2023/01/13 12:15:34;;;;;;;7.10;1.50;;;;;;;11.44;73.21;98655.08;109563;1253;65770;-69
2023/01/13 12:19:12;;;;;;;7.30;1.70;;;;;;;10.85;75.78;98649.50;109570;1252;71531;-66
2023/01/13 12:22:12;;;;;;;6.30;1.90;;;;;;;10.39;78.03;98642.98;109370;1253;59900;-66
2023/01/13 12:25:36;;;;;;;6.00;1.80;;;;;;;10.03;79.80;98645.55;109556;1252;59446;-65
2023/01/13 12:28:36;;;;;;;7.70;1.90;;;;;;;9.74;81.48;98647.83;109514;1253;73165;-66
2023/01/13 12:31:26;;;;;;;6.40;1.90;;;;;;;9.58;82.37;98642.09;109534;1254;67698;-73
2023/01/13 12:34:46;;;;;;;5.60;1.50;;;;;;;9.51;82.86;98643.84;109444;1253;74226;-72
2023/01/13 12:37:47;;;;;;;6.30;1.70;;;;;;;9.45;82.94;98647.84;109493;1254;58098;-71
2023/01/13 12:41:16;;;;;;;6.70;1.60;;;;;;;9.29;83.32;98658.71;109484;1253;61244;-69
2023/01/13 12:44:17;;;;;;;6.30;1.90;;;;;;;9.11;84.60;98662.13;109299;1253;73214;-70
2023/01/13 12:47:50;;;;;;;8.30;2.20;;;;;;;9.10;84.99;98649.34;109441;1252;68940;-69
2023/01/13 12:50:39;;;;;;;6.30;1.80;;;;;;;9.05;85.21;98643.02;109490;1252;73076;-68
2023/01/13 12:53:32;;;;;;;6.70;2.40;;;;;;;9.10;85.22;98636.06;109492;1254;57353;-67
2023/01/13 12:56:44;;;;;;;8.70;2.60;;;;;;;9.16;85.67;98647.88;109469;1253;58061;-66
2023/01/13 12:59:34;;;;;;;6.20;2.00;;;;;;;9.20;85.98;98662.02;109586;1253;74316;-67
2023/01/13 13:02:30;;;;;;;7.50;2.40;;;;;;;9.26;85.95;98657.39;109386;1254;67711;-66
2023/01/13 13:05:24;;;;;;;8.30;2.40;;;;;;;9.29;85.44;98655.52;109350;1254;72780;-69
2023/01/13 13:08:51;;;;;;;8.50;2.00;;;;;;;9.26;85.53;98664.80;109313;1254;59163;-68
2023/01/13 13:14:45;;;;;;;7.30;2.20;;;;;;;9.11;85.75;98658.84;109458;1253;74035;-70
2023/01/13 13:17:33;;;;;;;7.60;2.30;;;;;;;9.03;85.96;98653.66;109541;1254;67845;-70
2023/01/13 13:21:04;;;;;;;9.10;2.40;;;;;;;8.93;86.23;98649.70;109557;1253;73986;-69
2023/01/13 13:23:51;;;;;;;10.80;3.10;;;;;;;8.83;86.68;98652.16;109452;1252;58295;-69
2023/01/13 13:26:45;;;;;;;9.00;2.80;;;;;;;8.80;86.82;98644.52;109535;1251;59046;-68
2023/01/13 13:29:46;;;;;;;8.30;2.40;;;;;;;8.74;87.07;98634.42;109545;1254;71977;-69
2023/01/13 13:32:40;;;;;;;7.60;2.40;;;;;;;8.66;87.42;98640.33;109524;1255;68145;-69
2023/01/13 13:35:40;;;;;;;8.50;2.50;;;;;;;8.61;87.96;98656.46;109562;1253;71400;-71
2023/01/13 13:48:57;;;;;;;10.10;2.70;;;;;;;8.38;90.88;98687.92;109457;1254;67979;-71
2023/01/13 13:52:02;;;;;;;7.00;2.60;;;;;;;8.33;91.35;98673.53;109467;1252;72521;-72
2023/01/13 13:54:58;;;;;;;7.40;2.60;;;;;;;8.31;92.32;98681.52;109542;1254;57563;-71
2023/01/13 13:57:49;;;;;;;8.60;2.70;;;;;;;8.26;93.43;98678.36;109502;1252;61482;-69
2023/01/13 14:00:38;;;;;;;9.70;3.00;;;;;;;8.22;94.66;98684.77;109511;1254;74227;-71
2023/01/13 14:03:35;;;;;;;9.00;3.00;;;;;;;8.15;95.81;98695.08;109519;1252;68125;-72
2023/01/13 14:06:28;;;;;;;10.60;3.50;;;;;;;8.07;96.76;98698.30;109344;1252;72793;-70
2023/01/13 14:09:19;;;;;;;7.90;2.90;;;;;;;8.04;96.92;98701.70;109501;1253;60391;-71
2023/01/13 14:12:19;;;;;;;8.30;2.80;;;;;;;8.00;97.13;98689.86;109265;1254;59298;-75
2023/01/13 14:15:35;;;;;;;7.70;2.80;;;;;;;7.94;96.87;98682.60;109466;1254;73086;-70
2023/01/13 14:18:25;;;;;;;7.70;2.60;;;;;;;7.87;96.88;98681.80;109478;1253;67577;-71
2023/01/13 14:21:36;;;;;;;8.70;2.90;;;;;;;7.84;96.47;98668.48;109283;1254;72575;-71
2023/01/13 14:24:24;;;;;;;9.60;3.10;;;;;;;7.82;96.16;98674.11;109505;1254;59721;-71
2023/01/13 14:27:17;;;;;;;7.60;2.80;;;;;;;7.78;95.76;98684.06;109441;1254;60470;-72
2023/01/13 14:30:10;;;;;;;9.50;2.80;;;;;;;7.72;93.80;98688.48;109240;1254;73057;-71
2023/01/13 14:32:59;;;;;;;8.00;2.90;;;;;;;7.66;92.94;98688.02;109362;1254;66734;-70
2023/01/13 14:36:35;;;;;;;9.40;3.30;;;;;;;7.64;91.75;98684.34;109374;1254;72832;-72
2023/01/13 14:39:38;;;;;;;11.40;3.20;;;;;;;7.60;91.11;98681.76;109468;1254;57630;-71